sensor_id;sensor_type;location;lat;lon;timestamp;pressure;altitude;pressure_sealevel;temperature;humidity
61086;BME280;46967;48.876;2.136;2024-03-08T00:00:18;100848.09;;;32.57;13.32
61086;BME280;46967;48.876;2.136;2024-03-08T00:02:47;100844.31;;;32.66;13.74
61086;BME280;46967;48.876;2.136;2024-03-08T00:05:14;100847.78;;;32.45;13.63
61086;BME280;46967;48.876;2.136;2024-03-08T00:07:40;100840.41;;;32.32;13.86
61086;BME280;46967;48.876;2.136;2024-03-08T00:10:07;100832.34;;;32.32;13.68
61086;BME280;46967;48.876;2.136;2024-03-08T00:12:39;100838.25;;;32.43;13.61
61086;BME280;46967;48.876;2.136;2024-03-08T00:15:10;100833.19;;;32.55;13.79
61086;BME280;46967;48.876;2.136;2024-03-08T00:17:36;100828.25;;;32.52;13.50
61086;BME280;46967;48.876;2.136;2024-03-08T00:20:03;100826.00;;;31.74;14.20
61086;BME280;46967;48.876;2.136;2024-03-08T00:22:36;100821.53;;;32.26;13.90
61086;BME280;46967;48.876;2.136;2024-03-08T00:25:06;100822.38;;;32.26;13.86
61086;BME280;46967;48.876;2.136;2024-03-08T00:27:34;100817.91;;;32.33;13.56
61086;BME280;46967;48.876;2.136;2024-03-08T00:29:59;100819.38;;;32.36;13.85
61086;BME280;46967;48.876;2.136;2024-03-08T00:32:25;100812.13;;;32.52;13.54
61086;BME280;46967;48.876;2.136;2024-03-08T00:34:51;100804.81;;;32.09;14.14
61086;BME280;46967;48.876;2.136;2024-03-08T00:37:20;100810.84;;;32.47;13.88
61086;BME280;46967;48.876;2.136;2024-03-08T00:39:47;100808.22;;;32.54;13.52
61086;BME280;46967;48.876;2.136;2024-03-08T00:42:12;100796.78;;;32.45;13.71
61086;BME280;46967;48.876;2.136;2024-03-08T00:44:38;100790.53;;;31.93;13.98
61086;BME280;46967;48.876;2.136;2024-03-08T00:47:05;100793.28;;;32.30;14.03
61086;BME280;46967;48.876;2.136;2024-03-08T00:49:30;100792.00;;;32.26;13.64
61086;BME280;46967;48.876;2.136;2024-03-08T00:51:56;100784.22;;;32.31;13.53
61086;BME280;46967;48.876;2.136;2024-03-08T00:54:21;100783.97;;;32.11;13.61
61086;BME280;46967;48.876;2.136;2024-03-08T00:56:46;100781.94;;;31.98;13.69
61086;BME280;46967;48.876;2.136;2024-03-08T00:59:11;100778.31;;;31.91;14.02
61086;BME280;46967;48.876;2.136;2024-03-08T01:01:39;100774.63;;;32.22;13.63
61086;BME280;46967;48.876;2.136;2024-03-08T01:04:05;100776.19;;;32.01;13.99
61086;BME280;46967;48.876;2.136;2024-03-08T01:06:30;100768.41;;;31.32;14.75
61086;BME280;46967;48.876;2.136;2024-03-08T01:08:55;100755.41;;;31.73;14.39
61086;BME280;46967;48.876;2.136;2024-03-08T01:11:21;100760.47;;;31.83;14.12
61086;BME280;46967;48.876;2.136;2024-03-08T01:13:46;100748.47;;;32.09;13.94
61086;BME280;46967;48.876;2.136;2024-03-08T01:16:12;100749.53;;;32.14;13.76
61086;BME280;46967;48.876;2.136;2024-03-08T01:18:38;100748.91;;;32.12;13.70
61086;BME280;46967;48.876;2.136;2024-03-08T01:21:03;100743.81;;;32.18;13.61
61086;BME280;46967;48.876;2.136;2024-03-08T01:23:29;100734.75;;;32.19;14.07
61086;BME280;46967;48.876;2.136;2024-03-08T01:25:54;100736.66;;;31.58;14.16
61086;BME280;46967;48.876;2.136;2024-03-08T01:28:25;100732.16;;;31.95;13.82
61086;BME280;46967;48.876;2.136;2024-03-08T01:30:51;100728.94;;;32.15;14.04
61086;BME280;46967;48.876;2.136;2024-03-08T01:33:24;100726.63;;;32.12;13.99
61086;BME280;46967;48.876;2.136;2024-03-08T01:35:51;100728.50;;;32.33;13.85
61086;BME280;46967;48.876;2.136;2024-03-08T01:38:16;100725.47;;;32.21;13.76
61086;BME280;46967;48.876;2.136;2024-03-08T01:40:42;100719.66;;;32.18;13.94
61086;BME280;46967;48.876;2.136;2024-03-08T01:45:41;100706.59;;;32.14;13.88
61086;BME280;46967;48.876;2.136;2024-03-08T01:48:07;100708.22;;;32.09;13.95
61086;BME280;46967;48.876;2.136;2024-03-08T01:50:32;100705.53;;;32.09;13.69
61086;BME280;46967;48.876;2.136;2024-03-08T01:52:57;100697.41;;;31.87;14.15
61086;BME280;46967;48.876;2.136;2024-03-08T01:55:25;100699.47;;;32.22;13.83
61086;BME280;46967;48.876;2.136;2024-03-08T01:57:51;100689.31;;;31.36;14.75
61086;BME280;46967;48.876;2.136;2024-03-08T02:00:17;100676.66;;;31.59;14.20
61086;BME280;46967;48.876;2.136;2024-03-08T02:02:45;100675.75;;;31.89;13.91
61086;BME280;46967;48.876;2.136;2024-03-08T02:05:11;100673.50;;;32.07;14.21
61086;BME280;46967;48.876;2.136;2024-03-08T02:07:41;100667.78;;;31.95;14.25
61086;BME280;46967;48.876;2.136;2024-03-08T02:10:09;100674.31;;;32.08;14.07
61086;BME280;46967;48.876;2.136;2024-03-08T02:12:34;100661.47;;;31.52;14.50
61086;BME280;46967;48.876;2.136;2024-03-08T02:15:00;100654.16;;;31.75;14.00
61086;BME280;46967;48.876;2.136;2024-03-08T02:17:25;100654.88;;;31.84;14.13
61086;BME280;46967;48.876;2.136;2024-03-08T02:19:50;100662.34;;;31.89;14.13
61086;BME280;46967;48.876;2.136;2024-03-08T02:22:16;100647.97;;;31.96;14.09
61086;BME280;46967;48.876;2.136;2024-03-08T02:24:41;100652.78;;;32.01;13.85
61086;BME280;46967;48.876;2.136;2024-03-08T02:27:06;100647.34;;;31.94;13.74
61086;BME280;46967;48.876;2.136;2024-03-08T02:29:33;100639.75;;;31.98;13.95
61086;BME280;46967;48.876;2.136;2024-03-08T02:31:59;100634.69;;;31.88;14.02
61086;BME280;46967;48.876;2.136;2024-03-08T02:34:24;100625.09;;;31.79;14.09
61086;BME280;46967;48.876;2.136;2024-03-08T02:36:50;100634.59;;;31.82;14.23
61086;BME280;46967;48.876;2.136;2024-03-08T02:39:16;100634.19;;;31.48;14.54
61086;BME280;46967;48.876;2.136;2024-03-08T02:41:42;100619.00;;;31.70;14.20
61086;BME280;46967;48.876;2.136;2024-03-08T02:44:07;100615.88;;;31.67;14.53
61086;BME280;46967;48.876;2.136;2024-03-08T02:46:33;100611.28;;;31.60;14.35
61086;BME280;46967;48.876;2.136;2024-03-08T02:48:58;100599.34;;;31.63;14.18
61086;BME280;46967;48.876;2.136;2024-03-08T02:51:23;100599.44;;;31.40;14.54
61086;BME280;46967;48.876;2.136;2024-03-08T02:53:51;100593.44;;;31.53;14.37
61086;BME280;46967;48.876;2.136;2024-03-08T02:56:17;100581.78;;;31.60;14.11
61086;BME280;46967;48.876;2.136;2024-03-08T02:58:43;100580.13;;;31.59;14.48
61086;BME280;46967;48.876;2.136;2024-03-08T03:01:08;100568.84;;;31.49;14.42
61086;BME280;46967;48.876;2.136;2024-03-08T03:03:35;100569.44;;;31.30;14.54
61086;BME280;46967;48.876;2.136;2024-03-08T03:06:00;100555.56;;;31.26;14.81
61086;BME280;46967;48.876;2.136;2024-03-08T03:08:26;100551.53;;;31.15;14.79
61086;BME280;46967;48.876;2.136;2024-03-08T03:10:51;100548.81;;;30.41;15.67
61086;BME280;46967;48.876;2.136;2024-03-08T03:13:16;100544.72;;;30.98;15.07
61086;BME280;46967;48.876;2.136;2024-03-08T03:15:42;100540.44;;;31.18;14.87
61086;BME280;46967;48.876;2.136;2024-03-08T03:18:07;100544.72;;;30.98;14.95
61086;BME280;46967;48.876;2.136;2024-03-08T03:20:33;100549.09;;;30.61;14.88
61086;BME280;46967;48.876;2.136;2024-03-08T03:23:02;100557.91;;;30.84;15.20
61086;BME280;46967;48.876;2.136;2024-03-08T03:25:28;100555.03;;;31.16;14.68
61086;BME280;46967;48.876;2.136;2024-03-08T03:28:01;100545.22;;;31.23;14.71
61086;BME280;46967;48.876;2.136;2024-03-08T03:30:26;100532.69;;;30.94;15.00
61086;BME280;46967;48.876;2.136;2024-03-08T03:32:52;100529.91;;;30.87;14.96
61086;BME280;46967;48.876;2.136;2024-03-08T03:35:18;100522.16;;;30.92;15.13
61086;BME280;46967;48.876;2.136;2024-03-08T03:37:45;100514.22;;;30.84;14.71
61086;BME280;46967;48.876;2.136;2024-03-08T03:40:27;100519.91;;;30.96;14.62
61086;BME280;46967;48.876;2.136;2024-03-08T03:42:53;100520.50;;;31.06;14.51
61086;BME280;46967;48.876;2.136;2024-03-08T03:45:18;100520.22;;;31.16;14.86
61086;BME280;46967;48.876;2.136;2024-03-08T03:47:45;100524.94;;;31.14;14.64
61086;BME280;46967;48.876;2.136;2024-03-08T03:50:10;100518.47;;;31.08;14.92
61086;BME280;46967;48.876;2.136;2024-03-08T03:52:36;100514.03;;;31.15;14.64
61086;BME280;46967;48.876;2.136;2024-03-08T03:55:01;100516.59;;;31.09;14.91
61086;BME280;46967;48.876;2.136;2024-03-08T03:57:27;100513.66;;;31.03;14.76
61086;BME280;46967;48.876;2.136;2024-03-08T03:59:52;100516.22;;;31.12;14.96
61086;BME280;46967;48.876;2.136;2024-03-08T04:02:17;100520.03;;;30.87;14.76
61086;BME280;46967;48.876;2.136;2024-03-08T04:04:45;100514.03;;;31.00;14.47
61086;BME280;46967;48.876;2.136;2024-03-08T04:07:10;100512.00;;;30.87;14.80
61086;BME280;46967;48.876;2.136;2024-03-08T04:09:36;100513.47;;;31.05;14.84
61086;BME280;46967;48.876;2.136;2024-03-08T04:12:01;100516.72;;;31.15;14.35
61086;BME280;46967;48.876;2.136;2024-03-08T04:14:27;100513.84;;;31.17;14.73
61086;BME280;46967;48.876;2.136;2024-03-08T04:16:52;100505.69;;;31.25;14.72
61086;BME280;46967;48.876;2.136;2024-03-08T04:19:18;100505.16;;;31.15;14.50
61086;BME280;46967;48.876;2.136;2024-03-08T04:21:44;100494.13;;;31.24;14.32
61086;BME280;46967;48.876;2.136;2024-03-08T04:24:09;100495.00;;;30.95;14.49
61086;BME280;46967;48.876;2.136;2024-03-08T04:26:35;100493.31;;;30.94;14.54
61086;BME280;46967;48.876;2.136;2024-03-08T04:29:01;100487.16;;;30.94;14.88
61086;BME280;46967;48.876;2.136;2024-03-08T04:31:26;100490.13;;;30.99;14.82
61086;BME280;46967;48.876;2.136;2024-03-08T04:33:52;100484.38;;;30.72;15.05
61086;BME280;46967;48.876;2.136;2024-03-08T04:36:17;100488.34;;;30.91;14.63
61086;BME280;46967;48.876;2.136;2024-03-08T04:38:42;100485.22;;;30.87;14.87
61086;BME280;46967;48.876;2.136;2024-03-08T04:41:08;100495.94;;;31.02;14.73
61086;BME280;46967;48.876;2.136;2024-03-08T04:43:34;100485.59;;;30.69;14.84
61086;BME280;46967;48.876;2.136;2024-03-08T04:45:59;100482.16;;;31.05;14.42
61086;BME280;46967;48.876;2.136;2024-03-08T04:48:25;100469.78;;;31.04;14.67
61086;BME280;46967;48.876;2.136;2024-03-08T04:50:53;100468.75;;;31.05;14.55
61086;BME280;46967;48.876;2.136;2024-03-08T04:53:19;100473.84;;;31.00;14.82
61086;BME280;46967;48.876;2.136;2024-03-08T04:55:44;100461.75;;;30.89;14.94
61086;BME280;46967;48.876;2.136;2024-03-08T04:58:09;100466.75;;;30.78;14.74
61086;BME280;46967;48.876;2.136;2024-03-08T05:00:35;100464.53;;;30.81;14.83
61086;BME280;46967;48.876;2.136;2024-03-08T05:03:00;100457.78;;;30.85;14.83
61086;BME280;46967;48.876;2.136;2024-03-08T05:05:26;100457.50;;;30.95;14.56
61086;BME280;46967;48.876;2.136;2024-03-08T05:07:53;100453.16;;;30.94;14.82
61086;BME280;46967;48.876;2.136;2024-03-08T05:10:19;100446.44;;;30.83;14.64
61086;BME280;46967;48.876;2.136;2024-03-08T05:12:44;100445.81;;;30.66;14.81
61086;BME280;46967;48.876;2.136;2024-03-08T05:15:09;100446.44;;;30.68;14.89
61086;BME280;46967;48.876;2.136;2024-03-08T05:17:35;100445.63;;;30.38;14.96
61086;BME280;46967;48.876;2.136;2024-03-08T05:20:00;100441.28;;;30.67;14.78
61086;BME280;46967;48.876;2.136;2024-03-08T05:22:26;100445.25;;;30.56;15.06
61086;BME280;46967;48.876;2.136;2024-03-08T05:24:51;100438.31;;;30.77;14.59
61086;BME280;46967;48.876;2.136;2024-03-08T05:27:16;100440.81;;;30.78;14.57
61086;BME280;46967;48.876;2.136;2024-03-08T05:29:42;100433.88;;;30.69;14.62
61086;BME280;46967;48.876;2.136;2024-03-08T05:32:07;100433.34;;;30.59;14.88
61086;BME280;46967;48.876;2.136;2024-03-08T05:34:33;100435.84;;;30.60;14.83
61086;BME280;46967;48.876;2.136;2024-03-08T05:36:58;100441.53;;;30.72;14.84
61086;BME280;46967;48.876;2.136;2024-03-08T05:39:24;100438.69;;;30.74;14.98
61086;BME280;46967;48.876;2.136;2024-03-08T05:41:50;100434.44;;;30.79;14.66
61086;BME280;46967;48.876;2.136;2024-03-08T05:44:16;100440.34;;;30.75;14.80
61086;BME280;46967;48.876;2.136;2024-03-08T05:46:44;100436.75;;;30.82;14.54
61086;BME280;46967;48.876;2.136;2024-03-08T05:49:09;100437.13;;;30.79;14.82
61086;BME280;46967;48.876;2.136;2024-03-08T05:51:36;100438.13;;;30.93;14.78
61086;BME280;46967;48.876;2.136;2024-03-08T05:54:02;100437.72;;;31.11;14.51
61086;BME280;46967;48.876;2.136;2024-03-08T05:56:29;100433.72;;;31.22;14.25
61086;BME280;46967;48.876;2.136;2024-03-08T05:58:54;100436.66;;;31.27;14.37
61086;BME280;46967;48.876;2.136;2024-03-08T06:01:20;100435.31;;;31.38;14.22
61086;BME280;46967;48.876;2.136;2024-03-08T06:03:45;100431.72;;;31.31;14.36
61086;BME280;46967;48.876;2.136;2024-03-08T06:06:13;100422.56;;;31.18;14.43
61086;BME280;46967;48.876;2.136;2024-03-08T06:08:38;100425.81;;;31.14;14.00
61086;BME280;46967;48.876;2.136;2024-03-08T06:11:03;100423.03;;;31.07;14.23
61086;BME280;46967;48.876;2.136;2024-03-08T06:13:29;100424.13;;;31.13;14.35
61086;BME280;46967;48.876;2.136;2024-03-08T06:15:56;100407.69;;;31.16;14.04
61086;BME280;46967;48.876;2.136;2024-03-08T06:18:21;100404.94;;;30.94;14.37
61086;BME280;46967;48.876;2.136;2024-03-08T06:20:47;100402.06;;;30.96;14.18
61086;BME280;46967;48.876;2.136;2024-03-08T06:23:12;100403.38;;;31.00;14.28
61086;BME280;46967;48.876;2.136;2024-03-08T06:25:37;100413.47;;;30.98;14.08
61086;BME280;46967;48.876;2.136;2024-03-08T06:28:03;100418.28;;;31.02;14.42
61086;BME280;46967;48.876;2.136;2024-03-08T06:30:29;100411.56;;;31.13;14.54
61086;BME280;46967;48.876;2.136;2024-03-08T06:32:54;100404.44;;;31.20;14.47
61086;BME280;46967;48.876;2.136;2024-03-08T06:35:19;100405.44;;;31.19;14.54
61086;BME280;46967;48.876;2.136;2024-03-08T06:37:45;100405.69;;;31.24;14.38
61086;BME280;46967;48.876;2.136;2024-03-08T06:40:11;100399.19;;;31.34;14.20
61086;BME280;46967;48.876;2.136;2024-03-08T06:42:39;100398.06;;;31.21;14.27
61086;BME280;46967;48.876;2.136;2024-03-08T06:45:05;100394.34;;;31.22;14.54
61086;BME280;46967;48.876;2.136;2024-03-08T06:47:31;100394.59;;;31.28;14.43
61086;BME280;46967;48.876;2.136;2024-03-08T06:49:57;100398.47;;;31.47;14.06
61086;BME280;46967;48.876;2.136;2024-03-08T06:52:22;100396.25;;;31.50;14.10
61086;BME280;46967;48.876;2.136;2024-03-08T06:54:48;100390.63;;;31.67;14.23
61086;BME280;46967;48.876;2.136;2024-03-08T06:57:14;100398.25;;;31.63;14.15
61086;BME280;46967;48.876;2.136;2024-03-08T06:59:39;100389.81;;;31.66;14.37
61086;BME280;46967;48.876;2.136;2024-03-08T07:02:05;100385.53;;;31.50;14.28
61086;BME280;46967;48.876;2.136;2024-03-08T07:04:34;100381.00;;;31.51;14.41
61086;BME280;46967;48.876;2.136;2024-03-08T07:07:06;100377.44;;;31.22;14.31
61086;BME280;46967;48.876;2.136;2024-03-08T07:09:37;100374.91;;;31.42;14.36
61086;BME280;46967;48.876;2.136;2024-03-08T07:12:03;100372.00;;;31.58;14.18
61086;BME280;46967;48.876;2.136;2024-03-08T07:14:29;100374.16;;;31.48;14.41
61086;BME280;46967;48.876;2.136;2024-03-08T07:16:54;100377.38;;;31.58;14.03
61086;BME280;46967;48.876;2.136;2024-03-08T07:19:19;100378.44;;;31.64;14.18
61086;BME280;46967;48.876;2.136;2024-03-08T07:21:46;100373.00;;;31.79;14.21
61086;BME280;46967;48.876;2.136;2024-03-08T07:24:12;100372.72;;;31.46;14.33
61086;BME280;46967;48.876;2.136;2024-03-08T07:27:13;100372.47;;;30.82;14.63
61086;BME280;46967;48.876;2.136;2024-03-08T07:29:39;100374.13;;;31.63;14.27
61086;BME280;46967;48.876;2.136;2024-03-08T07:32:04;100370.56;;;31.34;14.40
61086;BME280;46967;48.876;2.136;2024-03-08T07:34:48;100376.44;;;31.51;14.43
61086;BME280;46967;48.876;2.136;2024-03-08T07:37:15;100378.44;;;31.21;14.74
61086;BME280;46967;48.876;2.136;2024-03-08T07:39:41;100377.19;;;31.60;14.23
61086;BME280;46967;48.876;2.136;2024-03-08T07:42:06;100369.69;;;31.77;14.32
61086;BME280;46967;48.876;2.136;2024-03-08T07:44:32;100370.59;;;31.91;14.01
61086;BME280;46967;48.876;2.136;2024-03-08T07:46:58;100367.16;;;31.04;14.47
61086;BME280;46967;48.876;2.136;2024-03-08T07:49:24;100364.66;;;31.46;14.31
61086;BME280;46967;48.876;2.136;2024-03-08T07:51:49;100371.47;;;31.70;14.30
61086;BME280;46967;48.876;2.136;2024-03-08T07:54:15;100366.19;;;31.83;14.34
61086;BME280;46967;48.876;2.136;2024-03-08T07:56:40;100364.47;;;32.04;14.19
61086;BME280;46967;48.876;2.136;2024-03-08T07:59:07;100374.31;;;31.90;13.76
61086;BME280;46967;48.876;2.136;2024-03-08T08:01:33;100357.59;;;31.38;14.38
61086;BME280;46967;48.876;2.136;2024-03-08T08:03:59;100358.34;;;31.82;14.29
61086;BME280;46967;48.876;2.136;2024-03-08T08:06:24;100361.56;;;31.70;14.00
61086;BME280;46967;48.876;2.136;2024-03-08T08:08:50;100354.19;;;31.29;14.31
61086;BME280;46967;48.876;2.136;2024-03-08T08:11:15;100347.41;;;31.83;14.08
61086;BME280;46967;48.876;2.136;2024-03-08T08:13:41;100340.97;;;31.49;14.10
61086;BME280;46967;48.876;2.136;2024-03-08T08:16:08;100346.09;;;31.44;14.18
61086;BME280;46967;48.876;2.136;2024-03-08T08:18:34;100342.13;;;31.62;14.02
61086;BME280;46967;48.876;2.136;2024-03-08T08:21:00;100341.59;;;31.51;14.51
61086;BME280;46967;48.876;2.136;2024-03-08T08:23:26;100333.88;;;31.91;13.84
61086;BME280;46967;48.876;2.136;2024-03-08T08:25:51;100330.25;;;31.49;14.59
61086;BME280;46967;48.876;2.136;2024-03-08T08:28:17;100340.19;;;31.77;14.39
61086;BME280;46967;48.876;2.136;2024-03-08T08:30:43;100331.19;;;31.91;13.94
61086;BME280;46967;48.876;2.136;2024-03-08T08:33:09;100329.41;;;32.47;13.84
61086;BME280;46967;48.876;2.136;2024-03-08T08:35:36;100325.53;;;31.79;14.00
61086;BME280;46967;48.876;2.136;2024-03-08T08:38:01;100318.09;;;32.10;13.98
61086;BME280;46967;48.876;2.136;2024-03-08T08:40:29;100311.03;;;32.44;13.79
61086;BME280;46967;48.876;2.136;2024-03-08T08:42:56;100317.66;;;32.06;14.14
61086;BME280;46967;48.876;2.136;2024-03-08T08:45:22;100316.97;;;31.97;14.33
61086;BME280;46967;48.876;2.136;2024-03-08T08:47:48;100312.63;;;31.90;13.92
61086;BME280;46967;48.876;2.136;2024-03-08T08:50:14;100316.75;;;31.92;14.18
61086;BME280;46967;48.876;2.136;2024-03-08T08:52:41;100310.13;;;31.10;14.75
61086;BME280;46967;48.876;2.136;2024-03-08T08:55:10;100303.28;;;31.86;14.25
61086;BME280;46967;48.876;2.136;2024-03-08T08:57:40;100299.19;;;32.25;14.02
61086;BME280;46967;48.876;2.136;2024-03-08T09:00:05;100295.03;;;32.84;13.43
61086;BME280;46967;48.876;2.136;2024-03-08T09:02:33;100290.56;;;32.43;14.08
61086;BME280;46967;48.876;2.136;2024-03-08T09:04:58;100286.47;;;32.60;13.98
61086;BME280;46967;48.876;2.136;2024-03-08T09:07:23;100281.66;;;32.36;14.03
61086;BME280;46967;48.876;2.136;2024-03-08T09:09:49;100282.84;;;32.20;14.18
61086;BME280;46967;48.876;2.136;2024-03-08T09:12:14;100277.72;;;32.25;14.12
61086;BME280;46967;48.876;2.136;2024-03-08T09:14:40;100275.53;;;32.62;13.77
61086;BME280;46967;48.876;2.136;2024-03-08T09:17:06;100273.16;;;33.14;13.42
61086;BME280;46967;48.876;2.136;2024-03-08T09:19:33;100272.31;;;33.13;13.19
61086;BME280;46967;48.876;2.136;2024-03-08T09:21:59;100269.84;;;33.32;13.29
61086;BME280;46967;48.876;2.136;2024-03-08T09:24:24;100264.28;;;33.27;13.16
61086;BME280;46967;48.876;2.136;2024-03-08T09:26:49;100256.78;;;33.55;13.21
61086;BME280;46967;48.876;2.136;2024-03-08T09:29:15;100265.09;;;33.47;13.35
61086;BME280;46967;48.876;2.136;2024-03-08T09:31:41;100250.59;;;33.42;13.31
61086;BME280;46967;48.876;2.136;2024-03-08T09:34:06;100251.94;;;33.91;13.05
61086;BME280;46967;48.876;2.136;2024-03-08T09:36:33;100243.38;;;33.29;13.57
61086;BME280;46967;48.876;2.136;2024-03-08T09:38:59;100245.22;;;33.55;13.18
61086;BME280;46967;48.876;2.136;2024-03-08T09:41:25;100247.88;;;33.82;12.95
61086;BME280;46967;48.876;2.136;2024-03-08T09:43:51;100237.38;;;33.40;13.50
61086;BME280;46967;48.876;2.136;2024-03-08T09:46:18;100232.53;;;33.82;12.90
61086;BME280;46967;48.876;2.136;2024-03-08T09:48:45;100229.53;;;34.10;12.93
61086;BME280;46967;48.876;2.136;2024-03-08T09:51:12;100229.69;;;33.57;13.21
61086;BME280;46967;48.876;2.136;2024-03-08T09:53:40;100218.78;;;34.04;13.13
61086;BME280;46967;48.876;2.136;2024-03-08T09:56:07;100220.44;;;34.43;12.87
61086;BME280;46967;48.876;2.136;2024-03-08T09:58:33;100212.78;;;33.30;13.90
61086;BME280;46967;48.876;2.136;2024-03-08T10:00:59;100210.50;;;34.44;12.86
61086;BME280;46967;48.876;2.136;2024-03-08T10:03:30;100199.38;;;34.34;12.79
61086;BME280;46967;48.876;2.136;2024-03-08T10:05:59;100201.00;;;34.03;13.25
61086;BME280;46967;48.876;2.136;2024-03-08T10:08:27;100199.88;;;33.65;13.33
61086;BME280;46967;48.876;2.136;2024-03-08T10:10:56;100197.06;;;33.47;13.46
61086;BME280;46967;48.876;2.136;2024-03-08T10:13:25;100194.50;;;33.58;13.49
61086;BME280;46967;48.876;2.136;2024-03-08T10:15:53;100191.13;;;34.28;13.17
61086;BME280;46967;48.876;2.136;2024-03-08T10:18:18;100181.16;;;34.61;12.67
61086;BME280;46967;48.876;2.136;2024-03-08T10:20:43;100184.91;;;34.60;12.73
61086;BME280;46967;48.876;2.136;2024-03-08T10:23:09;100183.50;;;33.73;13.62
61086;BME280;46967;48.876;2.136;2024-03-08T10:25:35;100170.59;;;34.91;12.74
61086;BME280;46967;48.876;2.136;2024-03-08T10:28:04;100165.03;;;34.86;12.67
61086;BME280;46967;48.876;2.136;2024-03-08T10:30:30;100173.34;;;33.69;13.72
61086;BME280;46967;48.876;2.136;2024-03-08T10:32:55;100163.88;;;34.43;13.20
61086;BME280;46967;48.876;2.136;2024-03-08T10:35:21;100168.75;;;33.89;13.22
61086;BME280;46967;48.876;2.136;2024-03-08T10:37:49;100170.59;;;34.34;13.26
61086;BME280;46967;48.876;2.136;2024-03-08T10:40:24;100163.69;;;34.70;13.06
61086;BME280;46967;48.876;2.136;2024-03-08T10:42:57;100165.72;;;35.00;12.75
61086;BME280;46967;48.876;2.136;2024-03-08T10:50:29;100150.56;;;35.61;12.33
61086;BME280;46967;48.876;2.136;2024-03-08T10:53:00;100147.50;;;35.76;12.42
61086;BME280;46967;48.876;2.136;2024-03-08T10:55:27;100140.00;;;35.78;12.28
61086;BME280;46967;48.876;2.136;2024-03-08T10:57:53;100141.25;;;36.36;11.85
61086;BME280;46967;48.876;2.136;2024-03-08T11:00:19;100143.31;;;36.22;12.27
61086;BME280;46967;48.876;2.136;2024-03-08T11:02:52;100137.31;;;36.62;11.63
61086;BME280;46967;48.876;2.136;2024-03-08T11:08:01;100129.19;;;36.39;12.01
61086;BME280;46967;48.876;2.136;2024-03-08T11:10:27;100127.19;;;35.18;12.45
61086;BME280;46967;48.876;2.136;2024-03-08T11:12:53;100128.19;;;35.42;12.70
61086;BME280;46967;48.876;2.136;2024-03-08T11:15:18;100124.75;;;36.14;12.26
61086;BME280;46967;48.876;2.136;2024-03-08T11:17:48;100118.31;;;35.36;12.47
61086;BME280;46967;48.876;2.136;2024-03-08T11:20:18;100112.91;;;35.36;12.54
61086;BME280;46967;48.876;2.136;2024-03-08T11:22:53;100107.09;;;36.54;12.23
61086;BME280;46967;48.876;2.136;2024-03-08T11:28:08;100110.19;;;36.15;12.55
61086;BME280;46967;48.876;2.136;2024-03-08T11:30:33;100115.91;;;37.08;11.79
61086;BME280;46967;48.876;2.136;2024-03-08T11:33:01;100109.75;;;37.37;11.50
61086;BME280;46967;48.876;2.136;2024-03-08T11:35:28;100100.75;;;37.60;11.59
61086;BME280;46967;48.876;2.136;2024-03-08T11:37:53;100094.09;;;36.86;11.80
61086;BME280;46967;48.876;2.136;2024-03-08T11:40:19;100098.28;;;36.94;12.13
61086;BME280;46967;48.876;2.136;2024-03-08T11:42:46;100098.97;;;37.13;12.14
61086;BME280;46967;48.876;2.136;2024-03-08T11:45:17;100091.72;;;36.66;11.94
61086;BME280;46967;48.876;2.136;2024-03-08T11:47:43;100083.06;;;37.40;11.82
61086;BME280;46967;48.876;2.136;2024-03-08T11:50:12;100087.38;;;36.65;12.07
61086;BME280;46967;48.876;2.136;2024-03-08T11:52:37;100087.22;;;37.31;11.76
61086;BME280;46967;48.876;2.136;2024-03-08T11:55:03;100079.25;;;36.41;12.33
61086;BME280;46967;48.876;2.136;2024-03-08T11:57:30;100074.59;;;36.06;12.59
61086;BME280;46967;48.876;2.136;2024-03-08T11:59:56;100069.41;;;36.47;12.11
61086;BME280;46967;48.876;2.136;2024-03-08T12:02:41;100059.78;;;36.75;12.38
61086;BME280;46967;48.876;2.136;2024-03-08T12:05:13;100057.03;;;36.98;12.16
61086;BME280;46967;48.876;2.136;2024-03-08T12:07:41;100056.19;;;37.79;11.68
61086;BME280;46967;48.876;2.136;2024-03-08T12:12:50;100047.66;;;37.70;11.42
61086;BME280;46967;48.876;2.136;2024-03-08T12:15:21;100047.16;;;37.04;11.97
61086;BME280;46967;48.876;2.136;2024-03-08T12:17:49;100041.31;;;36.60;12.42
61086;BME280;46967;48.876;2.136;2024-03-08T12:20:21;100041.03;;;37.09;12.11
61086;BME280;46967;48.876;2.136;2024-03-08T12:22:48;100034.66;;;36.62;12.35
61086;BME280;46967;48.876;2.136;2024-03-08T12:25:14;100033.03;;;37.14;12.15
61086;BME280;46967;48.876;2.136;2024-03-08T12:27:41;100019.53;;;37.43;11.89
61086;BME280;46967;48.876;2.136;2024-03-08T12:30:45;100017.28;;;37.51;11.88
61086;BME280;46967;48.876;2.136;2024-03-08T12:33:11;100007.25;;;36.83;12.15
61086;BME280;46967;48.876;2.136;2024-03-08T12:35:38;100010.28;;;37.56;11.95
61086;BME280;46967;48.876;2.136;2024-03-08T12:38:03;100003.50;;;37.53;11.73
61086;BME280;46967;48.876;2.136;2024-03-08T12:40:32;99997.25;;;37.36;12.16
61086;BME280;46967;48.876;2.136;2024-03-08T12:43:00;100004.72;;;37.45;11.55
61086;BME280;46967;48.876;2.136;2024-03-08T12:45:26;99994.03;;;37.84;12.05
61086;BME280;46967;48.876;2.136;2024-03-08T12:47:52;99994.44;;;36.90;11.93
61086;BME280;46967;48.876;2.136;2024-03-08T12:50:19;99995.78;;;37.62;12.13
61086;BME280;46967;48.876;2.136;2024-03-08T12:52:44;99986.47;;;38.03;11.65
61086;BME280;46967;48.876;2.136;2024-03-08T12:55:10;99984.59;;;38.04;11.68
61086;BME280;46967;48.876;2.136;2024-03-08T12:57:36;99985.50;;;37.30;12.24
61086;BME280;46967;48.876;2.136;2024-03-08T13:00:03;99989.06;;;36.31;12.84
61086;BME280;46967;48.876;2.136;2024-03-08T13:02:29;99974.31;;;37.55;11.68